Caribou, ME

5:14 AM EDT on July 28, 2014 (GMT -0400)
Caribou Municipal (KCAR) Elev 623 ft | 46.87 °N, 68.02 °W | Change Station

Current weather conditions updated 20 minutes ago

Light Rain
Light Rain Mist
64 °F
Feels Like 64 °F
N
6
Wind Variable Wind from South

Today is forecast to be Cooler than yesterday. Slight chance of a thunderstorm.

Today
High -- | Low -- °F
--% Chance of Precip.
Yesterday
High -- | Low -- °F
Precip. -- in
5:06 AM 8:09 PM
New Moon, 2% visible
Pressure 29.68 in
Visibility 6.0 miles
Clouds Overcast 400 ft
Dew Point 63 °F
Humidity 96%
Rainfall 0.00 in
Snow Depth Not available.
UV 0 out of 12
Pollen 3.10 out of 12
PM2.5 Good
Flu Activity Not available.
METAR KCAR 280854Z AUTO 17005KT 6SM -RA BR OVC004 18/17 A2968 RMK AO2 RAB47 SLP050 P0000 60000 T01780172 53001

More Conditions Fewer Conditions

Pressure 29.68 in
Visibility 6.0 miles
Clouds Overcast 400 ft
Dew Point 63 °F
Humidity 96%
Rainfall 0.00 in
Snow Depth Not available.
UV 0 out of 12
Pollen 3.10 out of 12
PM2.5 Good
Flu Activity Not available.
METAR KCAR 280854Z AUTO 17005KT 6SM -RA BR OVC004 18/17 A2968 RMK AO2 RAB47 SLP050 P0000 60000 T01780172 53001

More Conditions Fewer Conditions

10-Day Weather Forecast

Almanac

Astronomy

Jul. 28, 2014 Rise Set
Actual Time 5:06 AM EDT 8:09 PM EDT
Civil Twilight 4:30 AM EDT 8:45 PM EDT
Nautical Twilight 3:44 AM EDT 9:31 PM EDT
Astronomical Twilight 2:47 AM EDT 10:27 PM EDT
Moon 6:55 AM EDT 8:37 PM EDT
Length of Visible Light 16h 14m
Length of Day
15h 02m
Tomorrow will be 2m 27s shorter.
New Moon, 2% of the Moon is Illuminated
Today
New Moon
Aug 3
First Quarter
Aug 10
Full
Aug 17
Last Quarter
Aug 25
New

Today's Extremes

State Highs State Lows

Community

WunderPhotos

Upload Photos

1,738,296 photos uploaded!

Nearby

Air Quality

  Air Quality AQ Index Pollutant
Yesterday Good
PM2.5
Yesterday Good
OZONE
Current Good
PM2.5
Monday Good
OZONE
Monday Good
PM2.5
Tuesday Good
OZONE
Tuesday Good
PM2.5

Snow Depth

Station Depth Elevation
No new snow has been reported.

Earthquake Activity

City Distance Mag. Time & Date
No recent earthquake activity has been reported nearby.
Minimum magnitude displayed is 2.5.

Coastal Water Temperatures

Place Temperature
No Stations Reporting

Nearby Weather Stations

Station Location Temp. Dew Point Humidity Wind Precip. Elev Updated Type
Micmac Environmental, Caribou, ME 63.5 °F 63 °F 97% SSE  at  6.0 mph 0.00 in / hr 634 ft 5:14 AM EDT Rapid Fire
Micmac Environmental, Presque Isle, ME 64.5 °F 63 °F 94% SSE  at  4.0 mph 0.00 in / hr 540 ft 5:14 AM EDT Rapid Fire
MesoWest Van Buren , Van Buren, ME 64 °F 64 °F 100% ENE  at  8 mph 0.00 in / hr 458 ft 4:03 AM EDT MADIS
APRSWXNET Presque Isle ME , Presque Isle, ME 64 °F 63 °F 96% SE  at  3 mph 0.00 in / hr 2099 ft 4:00 AM EDT MADIS

Show More Stations Show Fewer Stations